Hovedside
METAR-TAF:

METAR-TAF

Lufthavner :

Ivato lufthavn

Antananarivo, Madagaskar

breddegrad: 18-48S, lengdegrad: 047-29E, høyde over havet: 1279 m

Gjeldene værobservasjon

Denne rapporten ble laget for 26 minutter siden, klokken 15:30 UTC
Vind 8 kt fra Øst
Temperatur 17°C
Luftfuktighet 68%
Trykk 1023 hPa
Sikt 10 km eller mer
ingen skyer under 1500 m og ingen bygeskyer

METAR: FMMI 191530Z 08008KT CAVOK 17/11 Q1023 NOSIG

Tid: 18:56 (15:56 UTC)

Varsel

Denne rapporten ble laget for 4 timer og 56 minutter siden, klokken 11:00 UTC
Varsel gyldig fra 19. klokken 12 UTC til 20. klokken 18 UTC
Vind 5 kt fra skiftende retning
Sikt 10 km eller mer
Få skyer i en høyde av 2300 ft
Sannsynlighet 40%
fra 20. klokken 00 UTC til 20. klokken 06 UTC
Sikt: 0400 m
Brutte skyer i en høyde av 400 ft
tåke

TAF: FMMI 191100Z 1912/2018 VRB05KT 9999 FEW023 PROB40 2000/2006 0400 FG BKN004

Værobservasjoner og værvarsel for over 4000 flyplasser (METAR- og TAF-rapporter).

Tilgjengelige stasjoner er representert av de røde og gule prikkene på kartet.

Hold musepekeren over prikken for å se navnet på stasjonen.

Klikk så for å se værobservasjoner og -varsler.

For å forandre kartet kan du klikke på den grønne knappen med svart kryss for å zoome inn, på den grønne knappen med strek for å zoome ut, eller på de grønne pilene for å se tilstøtende kart.


METAR-TAF: